Time;durP1;ratioP1;P1;durP2;ratioP2;P2;SDS_P1;SDS_P2;PMS_P1;PMS_P2;Temp;Humidity;BMP_temperature;BMP_pressure;BME280_temperature;BME280_humidity;BME280_pressure;Samples;Min_cycle;Max_cycle;Signal;HPM_P1;HPM_P2
2022/09/20 00:01:30;;;;;;;2.50;0.90;;;;;;;;;;4343805;33;20222;-54
2022/09/20 00:03:59;;;;;;;5.25;0.80;;;;;;;;;;4343762;33;20615;-54
2022/09/20 00:06:28;;;;;;;0.90;0.85;;;;;;;;;;4343011;33;20250;-54
2022/09/20 00:08:55;;;;;;;2.00;0.90;;;;;;;;;;4343329;33;20622;-54
2022/09/20 00:11:24;;;;;;;0.98;0.95;;;;;;;;;;4343680;32;20230;-54
2022/09/20 00:13:53;;;;;;;1.45;0.82;;;;;;;;;;4343444;33;20266;-55
2022/09/20 00:16:24;;;;;;;2.53;0.80;;;;;;;;;;4343155;33;20298;-53
2022/09/20 00:18:52;;;;;;;2.22;1.27;;;;;;;;;;4343391;33;20273;-54
2022/09/20 00:21:21;;;;;;;3.87;0.95;;;;;;;;;;4342660;33;20235;-53
2022/09/20 00:23:48;;;;;;;2.03;1.52;;;;;;;;;;4343271;33;20215;-53
2022/09/20 00:26:16;;;;;;;4.90;2.00;;;;;;;;;;4342807;33;20633;-54
2022/09/20 00:28:43;;;;;;;2.25;2.05;;;;;;;;;;4334016;33;20328;-54
2022/09/20 00:31:11;;;;;;;2.47;2.25;;;;;;;;;;4334657;33;20435;-54
2022/09/20 00:36:26;;;;;;;2.87;1.80;;;;;;;;;;4342466;33;20230;-54
2022/09/20 00:38:55;;;;;;;2.15;1.70;;;;;;;;;;4335253;33;20314;-53
2022/09/20 00:41:22;;;;;;;1.70;1.60;;;;;;;;;;4338940;32;20264;-54
2022/09/20 00:43:49;;;;;;;4.95;1.65;;;;;;;;;;4348069;32;20258;-52
2022/09/20 00:46:22;;;;;;;1.37;1.27;;;;;;;;;;4342894;33;20219;-55
2022/09/20 00:48:52;;;;;;;4.37;1.42;;;;;;;;;;4348007;32;20246;-54
2022/09/20 00:51:24;;;;;;;1.87;1.15;;;;;;;;;;4357704;32;20244;-54
2022/09/20 00:53:53;;;;;;;2.08;0.85;;;;;;;;;;4357642;32;20323;-54
2022/09/20 00:56:24;;;;;;;3.60;1.00;;;;;;;;;;4347739;32;20227;-54
2022/09/20 00:58:58;;;;;;;4.93;1.10;;;;;;;;;;4341776;33;20369;-53
2022/09/20 01:01:25;;;;;;;4.62;1.52;;;;;;;;;;4342129;33;20232;-54
2022/09/20 01:03:54;;;;;;;7.72;1.45;;;;;;;;;;4342718;33;20338;-54
2022/09/20 01:06:21;;;;;;;1.73;1.25;;;;;;;;;;4331288;33;20248;-54
2022/09/20 01:08:51;;;;;;;2.87;1.27;;;;;;;;;;4327628;33;20272;-54
2022/09/20 01:11:18;;;;;;;3.15;1.00;;;;;;;;;;4327123;33;20364;-54
2022/09/20 01:13:45;;;;;;;1.50;1.05;;;;;;;;;;4327549;33;20215;-54
2022/09/20 01:16:13;;;;;;;1.25;0.85;;;;;;;;;;4327729;33;20246;-53
2022/09/20 01:18:42;;;;;;;2.03;1.10;;;;;;;;;;4327319;33;20319;-53
2022/09/20 01:21:12;;;;;;;2.12;1.00;;;;;;;;;;4327224;33;20397;-54
2022/09/20 01:23:49;;;;;;;1.35;1.12;;;;;;;;;;4327588;33;20750;-54
2022/09/20 01:26:52;;;;;;;2.03;1.10;;;;;;;;;;4327558;33;20636;-54
2022/09/20 01:29:34;;;;;;;1.63;1.00;;;;;;;;;;4346859;32;20250;-54
2022/09/20 01:32:05;;;;;;;1.98;1.02;;;;;;;;;;4356075;32;20218;-53
2022/09/20 01:34:35;;;;;;;7.72;1.40;;;;;;;;;;4356960;32;20362;-53
2022/09/20 01:37:07;;;;;;;1.98;1.40;;;;;;;;;;4344490;32;20307;-53
2022/09/20 01:39:46;;;;;;;4.50;1.50;;;;;;;;;;4340652;33;20262;-54
2022/09/20 01:42:14;;;;;;;4.20;1.42;;;;;;;;;;4340519;33;20244;-53
2022/09/20 01:44:53;;;;;;;2.90;1.37;;;;;;;;;;4340119;33;20387;-54
2022/09/20 01:47:31;;;;;;;4.62;2.83;;;;;;;;;;4340427;33;20274;-54
2022/09/20 01:50:07;;;;;;;3.70;3.40;;;;;;;;;;4351782;32;20252;-53
2022/09/20 01:53:16;;;;;;;2.22;1.77;;;;;;;;;;4355504;32;20241;-54
2022/09/20 01:56:13;;;;;;;1.40;1.00;;;;;;;;;;4350217;32;20257;-53
2022/09/20 01:59:24;;;;;;;2.78;1.30;;;;;;;;;;4342120;33;20240;-54
2022/09/20 02:02:09;;;;;;;1.77;1.03;;;;;;;;;;4342058;33;20325;-54
2022/09/20 02:05:10;;;;;;;2.97;0.90;;;;;;;;;;4341981;33;20349;-54
2022/09/20 02:08:21;;;;;;;0.80;0.80;;;;;;;;;;4326412;33;20245;-54
2022/09/20 02:11:05;;;;;;;2.25;0.80;;;;;;;;;;4326627;33;20239;-54
2022/09/20 02:13:36;;;;;;;1.00;0.70;;;;;;;;;;4327078;33;20580;-53
2022/09/20 02:16:20;;;;;;;1.80;1.10;;;;;;;;;;4326738;33;20321;-53
2022/09/20 02:19:25;;;;;;;3.40;0.93;;;;;;;;;;4326693;33;20214;-54
2022/09/20 02:22:20;;;;;;;1.40;1.10;;;;;;;;;;4326504;33;20211;-54
2022/09/20 02:24:56;;;;;;;1.57;1.10;;;;;;;;;;4306286;32;20321;-54
2022/09/20 02:27:29;;;;;;;1.55;1.00;;;;;;;;;;4341647;33;20222;-53
2022/09/20 02:30:10;;;;;;;1.47;1.17;;;;;;;;;;4341825;33;20315;-53
2022/09/20 02:32:58;;;;;;;1.17;0.90;;;;;;;;;;4341346;33;20218;-55
2022/09/20 02:35:41;;;;;;;4.20;0.82;;;;;;;;;;4341091;33;20230;-53
2022/09/20 02:38:30;;;;;;;1.45;1.10;;;;;;;;;;4341019;33;20654;-52
2022/09/20 02:41:12;;;;;;;1.87;0.80;;;;;;;;;;4338472;33;20444;-54
2022/09/20 02:43:49;;;;;;;1.67;1.00;;;;;;;;;;4341200;33;20230;-53
2022/09/20 02:46:24;;;;;;;1.73;1.00;;;;;;;;;;4326851;33;20694;-54
2022/09/20 02:48:58;;;;;;;1.17;0.90;;;;;;;;;;4331366;33;20818;-53
2022/09/20 02:51:34;;;;;;;1.27;0.90;;;;;;;;;;4341154;33;20650;-54
2022/09/20 02:54:12;;;;;;;5.83;1.20;;;;;;;;;;4341171;33;20320;-54
2022/09/20 02:56:47;;;;;;;1.20;0.90;;;;;;;;;;4340979;33;20234;-55
2022/09/20 02:59:26;;;;;;;2.03;1.30;;;;;;;;;;4341318;33;20238;-53
2022/09/20 03:02:03;;;;;;;1.60;1.50;;;;;;;;;;4341842;33;20277;-54
2022/09/20 03:04:45;;;;;;;4.13;1.50;;;;;;;;;;4341397;33;20238;-54
2022/09/20 03:07:22;;;;;;;1.50;1.30;;;;;;;;;;4325899;33;20244;-54
2022/09/20 03:10:00;;;;;;;2.20;1.30;;;;;;;;;;4326124;33;20572;-54
2022/09/20 03:12:38;;;;;;;1.27;1.10;;;;;;;;;;4326049;33;20359;-54
2022/09/20 03:15:25;;;;;;;1.70;1.33;;;;;;;;;;4326160;33;20234;-54
2022/09/20 03:18:06;;;;;;;3.87;1.27;;;;;;;;;;4326255;33;20746;-55
2022/09/20 03:20:41;;;;;;;1.70;1.13;;;;;;;;;;4328281;33;20361;-54
2022/09/20 03:23:24;;;;;;;2.30;1.20;;;;;;;;;;4340791;33;20655;-54
2022/09/20 03:25:57;;;;;;;2.87;1.30;;;;;;;;;;4340675;33;20329;-54
2022/09/20 03:28:57;;;;;;;3.27;1.27;;;;;;;;;;4340820;33;20285;-54
2022/09/20 03:31:46;;;;;;;7.50;3.47;;;;;;;;;;4337048;33;20266;-54
2022/09/20 03:34:27;;;;;;;7.13;2.97;;;;;;;;;;4339462;33;20258;-54
2022/09/20 03:37:10;;;;;;;5.17;2.00;;;;;;;;;;4343174;33;20261;-55
2022/09/20 03:40:02;;;;;;;3.73;1.63;;;;;;;;;;4340749;33;20255;-54
2022/09/20 03:42:30;;;;;;;3.87;1.80;;;;;;;;;;4340600;33;20286;-55
2022/09/20 03:45:23;;;;;;;1.60;1.50;;;;;;;;;;4341775;33;20242;-54
2022/09/20 03:48:10;;;;;;;8.97;1.50;;;;;;;;;;4343350;33;20539;-53
2022/09/20 03:51:09;;;;;;;2.03;1.63;;;;;;;;;;4347343;33;20242;-54
2022/09/20 03:54:03;;;;;;;1.37;1.27;;;;;;;;;;4342841;33;20710;-54
2022/09/20 03:57:11;;;;;;;3.90;1.67;;;;;;;;;;4345505;33;20564;-55
2022/09/20 04:00:15;;;;;;;10.27;2.43;;;;;;;;;;4340614;33;20293;-54
2022/09/20 04:03:11;;;;;;;4.83;2.40;;;;;;;;;;4345922;32;20303;-53
2022/09/20 04:05:47;;;;;;;4.53;2.20;;;;;;;;;;4348158;33;20655;-53
2022/09/20 04:08:30;;;;;;;7.40;2.40;;;;;;;;;;4341091;33;20222;-54
2022/09/20 04:11:07;;;;;;;8.47;2.27;;;;;;;;;;4340713;33;20258;-54
2022/09/20 04:13:40;;;;;;;5.70;1.97;;;;;;;;;;4341006;33;20223;-55
2022/09/20 04:16:20;;;;;;;3.43;1.83;;;;;;;;;;4343062;32;20391;-53
2022/09/20 04:18:55;;;;;;;3.57;1.93;;;;;;;;;;4340944;33;20273;-53
2022/09/20 04:21:28;;;;;;;5.90;2.33;;;;;;;;;;4340102;33;20252;-54
2022/09/20 04:24:00;;;;;;;9.23;1.83;;;;;;;;;;4340210;33;20233;-53
2022/09/20 04:26:30;;;;;;;7.03;2.03;;;;;;;;;;4341679;33;20215;-53
2022/09/20 04:29:07;;;;;;;3.43;1.93;;;;;;;;;;4354783;33;20289;-53
2022/09/20 04:31:41;;;;;;;2.97;1.80;;;;;;;;;;4356251;32;20317;-54
2022/09/20 04:34:17;;;;;;;5.53;2.70;;;;;;;;;;4356235;32;20539;-54
2022/09/20 04:36:56;;;;;;;3.50;1.73;;;;;;;;;;4342929;33;20252;-54
2022/09/20 04:39:35;;;;;;;5.50;2.87;;;;;;;;;;4342465;33;20243;-54
2022/09/20 04:42:48;;;;;;;4.97;2.77;;;;;;;;;;4342890;33;20223;-55
2022/09/20 04:45:42;;;;;;;5.37;2.93;;;;;;;;;;4327602;32;20382;-54
2022/09/20 04:48:44;;;;;;;6.03;2.80;;;;;;;;;;4356019;32;20769;-53
2022/09/20 04:52:03;;;;;;;7.03;2.93;;;;;;;;;;4350635;32;20802;-54
2022/09/20 04:55:04;;;;;;;7.73;3.70;;;;;;;;;;4310571;33;20645;-54
2022/09/20 04:58:07;;;;;;;18.07;9.03;;;;;;;;;;4323873;33;20747;-55
2022/09/20 05:00:51;;;;;;;6.67;3.30;;;;;;;;;;4318554;32;20837;-55
2022/09/20 05:03:39;;;;;;;19.33;3.13;;;;;;;;;;4342344;33;20623;-54
2022/09/20 05:06:33;;;;;;;8.03;2.37;;;;;;;;;;4335768;33;20302;-53
2022/09/20 05:09:32;;;;;;;4.17;2.20;;;;;;;;;;4341817;32;20316;-54
2022/09/20 05:12:18;;;;;;;6.07;2.40;;;;;;;;;;4357407;32;20313;-54
2022/09/20 05:15:08;;;;;;;3.27;1.93;;;;;;;;;;4344901;32;20678;-55
2022/09/20 05:17:51;;;;;;;4.80;2.10;;;;;;;;;;4345960;32;20566;-56
2022/09/20 05:20:43;;;;;;;4.40;2.00;;;;;;;;;;4356129;32;20234;-54
2022/09/20 05:23:39;;;;;;;8.17;1.63;;;;;;;;;;4342311;33;20254;-54
2022/09/20 05:26:14;;;;;;;3.97;1.40;;;;;;;;;;4342312;33;20289;-53
2022/09/20 05:28:53;;;;;;;8.33;1.50;;;;;;;;;;4341969;32;20306;-53
2022/09/20 05:31:29;;;;;;;7.40;1.90;;;;;;;;;;4342789;33;20226;-54
2022/09/20 05:34:04;;;;;;;8.60;1.90;;;;;;;;;;4342444;33;20261;-53
2022/09/20 05:36:41;;;;;;;8.73;2.43;;;;;;;;;;4344567;32;20257;-53
2022/09/20 05:39:22;;;;;;;20.83;4.00;;;;;;;;;;4356722;32;20256;-54
2022/09/20 05:41:56;;;;;;;9.33;3.80;;;;;;;;;;4355747;32;20599;-54
2022/09/20 05:44:47;;;;;;;12.40;3.53;;;;;;;;;;4351011;32;20407;-53
2022/09/20 05:47:21;;;;;;;12.47;4.10;;;;;;;;;;4339778;32;20318;-54
2022/09/20 05:50:03;;;;;;;23.77;6.17;;;;;;;;;;4351443;32;20308;-54
2022/09/20 05:52:41;;;;;;;24.13;7.07;;;;;;;;;;4355486;32;20647;-54
2022/09/20 05:55:28;;;;;;;8.17;3.93;;;;;;;;;;4353510;32;20234;-53
2022/09/20 05:58:23;;;;;;;22.37;5.80;;;;;;;;;;4356633;32;20230;-53
2022/09/20 06:00:58;;;;;;;26.10;7.23;;;;;;;;;;4356867;32;20260;-54
2022/09/20 06:03:35;;;;;;;32.73;8.07;;;;;;;;;;4356893;32;20222;-55
2022/09/20 06:06:11;;;;;;;28.03;7.90;;;;;;;;;;4350957;32;20273;-55
2022/09/20 06:09:20;;;;;;;29.87;7.33;;;;;;;;;;4341737;33;20290;-55
2022/09/20 06:12:12;;;;;;;31.40;6.85;;;;;;;;;;4313123;33;20270;-55
2022/09/20 06:14:46;;;;;;;16.53;4.70;;;;;;;;;;4321875;32;20254;-54
2022/09/20 06:17:27;;;;;;;6.50;3.50;;;;;;;;;;4351244;32;20392;-55
2022/09/20 06:20:08;;;;;;;11.57;2.40;;;;;;;;;;4341801;33;20343;-54
2022/09/20 06:22:41;;;;;;;14.93;4.85;;;;;;;;;;4341868;33;20350;-53
2022/09/20 06:25:18;;;;;;;11.53;2.63;;;;;;;;;;4341099;33;20257;-54
2022/09/20 06:27:50;;;;;;;10.70;1.80;;;;;;;;;;4341973;33;20218;-54
2022/09/20 06:30:19;;;;;;;7.93;2.28;;;;;;;;;;4341752;33;20684;-53
2022/09/20 06:32:57;;;;;;;3.22;1.50;;;;;;;;;;4341379;33;20650;-53
2022/09/20 06:35:32;;;;;;;11.75;3.37;;;;;;;;;;4352197;32;20809;-54
2022/09/20 06:43:42;;;;;;;3.03;1.17;;;;;;;;;;4355947;32;20300;-54
2022/09/20 06:46:12;;;;;;;10.77;3.10;;;;;;;;;;4355532;32;20238;-54
2022/09/20 06:48:39;;;;;;;10.73;2.15;;;;;;;;;;4355171;32;20587;-53
2022/09/20 06:51:08;;;;;;;2.03;1.30;;;;;;;;;;4354848;32;20601;-54
2022/09/20 06:53:39;;;;;;;3.70;0.95;;;;;;;;;;4348570;32;20303;-53
2022/09/20 06:56:09;;;;;;;2.47;1.10;;;;;;;;;;4340529;33;20269;-54
2022/09/20 06:58:36;;;;;;;1.40;0.93;;;;;;;;;;4342219;32;20345;-54
2022/09/20 07:01:03;;;;;;;2.37;1.00;;;;;;;;;;4354912;32;20308;-54
2022/09/20 07:03:31;;;;;;;1.70;1.07;;;;;;;;;;4355527;32;20227;-53
2022/09/20 07:05:59;;;;;;;3.28;0.90;;;;;;;;;;4348763;32;20334;-53
2022/09/20 07:08:26;;;;;;;3.97;1.12;;;;;;;;;;4347903;32;20280;-54
2022/09/20 07:10:54;;;;;;;4.07;1.17;;;;;;;;;;4353478;32;20246;-55
2022/09/20 07:13:22;;;;;;;4.70;1.20;;;;;;;;;;4340645;33;20820;-56
2022/09/20 07:15:50;;;;;;;3.80;1.50;;;;;;;;;;4340760;33;20314;-54
2022/09/20 07:18:17;;;;;;;2.78;0.95;;;;;;;;;;4346859;32;20249;-55
2022/09/20 07:20:44;;;;;;;4.40;1.10;;;;;;;;;;4354667;32;20363;-54
2022/09/20 07:23:10;;;;;;;3.70;0.90;;;;;;;;;;4339548;32;20718;-54
2022/09/20 07:25:37;;;;;;;2.92;1.45;;;;;;;;;;4340250;33;20671;-53
2022/09/20 07:28:06;;;;;;;1.50;1.10;;;;;;;;;;4342792;33;20371;-52
2022/09/20 07:30:33;;;;;;;6.07;1.33;;;;;;;;;;4355604;33;20265;-54
2022/09/20 07:33:01;;;;;;;1.80;0.97;;;;;;;;;;4350936;32;20538;-54
2022/09/20 07:35:28;;;;;;;7.33;1.00;;;;;;;;;;4340877;33;20309;-55
2022/09/20 07:37:58;;;;;;;5.23;1.00;;;;;;;;;;4340086;33;20237;-55
2022/09/20 07:40:26;;;;;;;4.30;0.80;;;;;;;;;;4340358;33;20710;-55
2022/09/20 07:42:52;;;;;;;1.43;0.90;;;;;;;;;;4340026;33;20257;-53
2022/09/20 07:45:21;;;;;;;0.50;0.47;;;;;;;;;;4340467;33;20246;-55
2022/09/20 07:47:48;;;;;;;2.53;0.90;;;;;;;;;;4341174;33;20218;-53
2022/09/20 07:50:15;;;;;;;2.03;1.13;;;;;;;;;;4354129;33;20321;-54
2022/09/20 07:52:41;;;;;;;5.25;3.50;;;;;;;;;;4353760;32;20699;-53
2022/09/20 07:55:09;;;;;;;4.32;3.37;;;;;;;;;;4353366;33;20317;-53
2022/09/20 07:57:37;;;;;;;4.20;0.90;;;;;;;;;;4340183;33;20715;-54
2022/09/20 08:00:07;;;;;;;1.08;0.98;;;;;;;;;;4340104;33;20696;-54
2022/09/20 08:02:35;;;;;;;1.55;1.12;;;;;;;;;;4340214;33;21316;-54
2022/09/20 08:05:03;;;;;;;5.18;1.35;;;;;;;;;;4325751;33;20246;-55
2022/09/20 08:07:31;;;;;;;1.02;0.93;;;;;;;;;;4326727;33;20243;-54
2022/09/20 08:09:58;;;;;;;4.62;1.00;;;;;;;;;;4334903;33;20246;-54
2022/09/20 08:12:25;;;;;;;0.77;0.77;;;;;;;;;;4348726;32;20266;-55
2022/09/20 08:14:52;;;;;;;3.70;1.10;;;;;;;;;;4343419;33;20365;-54
2022/09/20 08:17:19;;;;;;;1.12;0.77;;;;;;;;;;4343360;33;20245;-54
2022/09/20 08:19:47;;;;;;;2.37;1.05;;;;;;;;;;4343550;33;20264;-54
2022/09/20 08:22:14;;;;;;;2.05;1.05;;;;;;;;;;4342809;33;20321;-54
2022/09/20 08:24:43;;;;;;;1.50;1.15;;;;;;;;;;4343339;33;20250;-54
2022/09/20 08:27:10;;;;;;;0.73;0.73;;;;;;;;;;4342829;33;20714;-54
2022/09/20 08:29:36;;;;;;;0.95;0.80;;;;;;;;;;4343451;33;20592;-54
2022/09/20 08:32:04;;;;;;;0.95;0.70;;;;;;;;;;4344083;33;20286;-54
2022/09/20 08:34:31;;;;;;;1.58;0.90;;;;;;;;;;4343129;33;20339;-54
2022/09/20 08:36:59;;;;;;;0.75;0.60;;;;;;;;;;4342944;33;20232;-56
2022/09/20 08:39:26;;;;;;;4.62;0.80;;;;;;;;;;4342237;33;20336;-55
2022/09/20 08:41:56;;;;;;;3.70;0.85;;;;;;;;;;4342764;33;20219;-55
2022/09/20 08:44:28;;;;;;;0.50;0.50;;;;;;;;;;4342621;33;20259;-54
2022/09/20 08:47:04;;;;;;;1.33;0.70;;;;;;;;;;4354819;32;20354;-55
2022/09/20 08:49:32;;;;;;;0.95;0.80;;;;;;;;;;4349084;32;20736;-54
2022/09/20 08:52:02;;;;;;;5.43;0.80;;;;;;;;;;4342803;33;20223;-54
2022/09/20 08:54:32;;;;;;;0.85;0.60;;;;;;;;;;4342758;33;20255;-55
2022/09/20 08:57:03;;;;;;;1.83;1.00;;;;;;;;;;4343009;33;20282;-55
2022/09/20 08:59:31;;;;;;;0.77;0.70;;;;;;;;;;4342347;33;20697;-55
2022/09/20 09:01:58;;;;;;;0.70;0.70;;;;;;;;;;4343017;33;20241;-53
2022/09/20 09:04:33;;;;;;;0.62;0.62;;;;;;;;;;4342970;33;20655;-54
2022/09/20 09:07:03;;;;;;;2.17;0.90;;;;;;;;;;4342601;33;20234;-54
2022/09/20 09:09:30;;;;;;;0.93;0.70;;;;;;;;;;4342585;33;20250;-54
2022/09/20 09:11:58;;;;;;;0.82;0.70;;;;;;;;;;4342647;33;20680;-55
2022/09/20 09:17:13;;;;;;;0.60;0.60;;;;;;;;;;4341899;33;20269;-53
2022/09/20 09:19:46;;;;;;;0.88;0.62;;;;;;;;;;4342282;33;20564;-54
2022/09/20 09:22:20;;;;;;;1.73;0.60;;;;;;;;;;4342004;33;20322;-54
2022/09/20 09:25:02;;;;;;;0.60;0.60;;;;;;;;;;4341906;33;20309;-53
2022/09/20 09:27:29;;;;;;;0.50;0.50;;;;;;;;;;4341816;33;20264;-53
2022/09/20 09:29:56;;;;;;;6.25;0.77;;;;;;;;;;4342434;33;20277;-55
2022/09/20 09:32:27;;;;;;;1.33;1.00;;;;;;;;;;4342094;33;20277;-55
2022/09/20 09:34:54;;;;;;;0.60;0.60;;;;;;;;;;4341874;33;20235;-54
2022/09/20 09:37:30;;;;;;;0.60;0.60;;;;;;;;;;4341402;33;20264;-55
2022/09/20 09:40:09;;;;;;;7.90;4.53;;;;;;;;;;4342657;33;20234;-54
2022/09/20 09:42:36;;;;;;;3.97;1.02;;;;;;;;;;4342170;33;20281;-54
2022/09/20 09:45:13;;;;;;;2.03;1.50;;;;;;;;;;4342208;33;20288;-54
2022/09/20 09:47:40;;;;;;;5.32;1.08;;;;;;;;;;4341647;33;20241;-55
2022/09/20 09:50:21;;;;;;;1.08;0.70;;;;;;;;;;4354530;32;20358;-55
2022/09/20 09:53:03;;;;;;;0.55;0.55;;;;;;;;;;4356711;32;20302;-54
2022/09/20 09:55:51;;;;;;;0.60;0.60;;;;;;;;;;4347307;32;20324;-54
2022/09/20 09:58:27;;;;;;;2.35;0.90;;;;;;;;;;4342067;33;20250;-56
2022/09/20 10:00:55;;;;;;;2.35;0.95;;;;;;;;;;4341944;33;20328;-56
2022/09/20 10:03:46;;;;;;;4.75;0.90;;;;;;;;;;4341510;33;20317;-54
2022/09/20 10:06:22;;;;;;;5.18;0.80;;;;;;;;;;4341648;33;20238;-53
2022/09/20 10:09:20;;;;;;;1.60;0.75;;;;;;;;;;4341983;33;20356;-54
2022/09/20 10:12:02;;;;;;;1.20;0.70;;;;;;;;;;4341868;33;20306;-53
2022/09/20 10:14:45;;;;;;;3.75;0.85;;;;;;;;;;4341952;33;20262;-55
2022/09/20 10:17:30;;;;;;;1.65;0.82;;;;;;;;;;4341722;33;20310;-55
2022/09/20 10:20:09;;;;;;;0.60;0.60;;;;;;;;;;4341570;33;20238;-54
2022/09/20 10:22:46;;;;;;;2.50;0.70;;;;;;;;;;4341274;33;20297;-54
2022/09/20 10:25:25;;;;;;;0.57;0.57;;;;;;;;;;4341213;33;20285;-54
2022/09/20 10:28:03;;;;;;;3.25;0.70;;;;;;;;;;4340616;33;20281;-54
2022/09/20 10:30:37;;;;;;;0.95;0.60;;;;;;;;;;4339233;33;20242;-55
2022/09/20 10:33:15;;;;;;;1.12;0.80;;;;;;;;;;4339835;33;20272;-55
2022/09/20 10:35:55;;;;;;;1.37;0.60;;;;;;;;;;4341437;33;20569;-53
2022/09/20 10:38:25;;;;;;;2.08;1.20;;;;;;;;;;4341380;33;20238;-53
2022/09/20 10:44:10;;;;;;;1.60;0.62;;;;;;;;;;4340307;33;20451;-55
2022/09/20 10:46:51;;;;;;;1.52;0.60;;;;;;;;;;4338156;33;20633;-55
2022/09/20 10:49:27;;;;;;;0.62;0.62;;;;;;;;;;4339233;32;20290;-53
2022/09/20 10:52:04;;;;;;;0.50;0.50;;;;;;;;;;4338752;33;20280;-53
2022/09/20 10:54:43;;;;;;;0.60;0.60;;;;;;;;;;4338699;33;20239;-55
2022/09/20 10:57:27;;;;;;;2.05;0.82;;;;;;;;;;4339034;33;20663;-54
2022/09/20 11:00:02;;;;;;;4.55;0.98;;;;;;;;;;4340623;33;20251;-53
2022/09/20 11:02:50;;;;;;;4.85;2.30;;;;;;;;;;4341047;33;20216;-55
2022/09/20 11:05:32;;;;;;;1.10;0.80;;;;;;;;;;4339140;33;20416;-54
2022/09/20 11:08:07;;;;;;;0.57;0.50;;;;;;;;;;4325585;33;20586;-54
2022/09/20 11:10:38;;;;;;;1.87;0.73;;;;;;;;;;4325997;33;20262;-54
2022/09/20 11:13:15;;;;;;;0.50;0.50;;;;;;;;;;4326046;33;20314;-55
2022/09/20 11:15:44;;;;;;;0.50;0.50;;;;;;;;;;4326427;33;20289;-54
2022/09/20 11:18:22;;;;;;;1.25;0.80;;;;;;;;;;4326686;33;20261;-56
2022/09/20 11:20:56;;;;;;;5.07;1.25;;;;;;;;;;4327036;33;20247;-54
2022/09/20 11:23:28;;;;;;;3.92;1.20;;;;;;;;;;4340960;33;20268;-54
2022/09/20 11:26:00;;;;;;;0.60;0.60;;;;;;;;;;4340117;33;20436;-54
2022/09/20 11:28:36;;;;;;;0.60;0.60;;;;;;;;;;4338583;33;20243;-54
2022/09/20 11:31:09;;;;;;;0.98;0.60;;;;;;;;;;4338992;33;20353;-55
2022/09/20 11:33:44;;;;;;;2.58;0.80;;;;;;;;;;4339991;33;20353;-54
2022/09/20 11:36:17;;;;;;;0.80;0.57;;;;;;;;;;4337614;33;20305;-55
2022/09/20 11:38:49;;;;;;;1.60;0.62;;;;;;;;;;4339322;33;20354;-53
2022/09/20 11:41:20;;;;;;;1.73;1.00;;;;;;;;;;4342878;33;20288;-56
2022/09/20 11:43:50;;;;;;;5.60;1.17;;;;;;;;;;4343550;33;20265;-55
2022/09/20 11:46:23;;;;;;;0.90;0.68;;;;;;;;;;4343970;33;20308;-55
2022/09/20 11:48:54;;;;;;;1.00;0.90;;;;;;;;;;4347964;32;20614;-53
2022/09/20 11:51:48;;;;;;;0.50;0.50;;;;;;;;;;4358857;32;20264;-56
2022/09/20 11:54:29;;;;;;;0.70;0.70;;;;;;;;;;4331426;33;20238;-54
2022/09/20 11:56:58;;;;;;;3.22;0.98;;;;;;;;;;4343519;33;20519;-56
2022/09/20 11:59:34;;;;;;;0.98;0.60;;;;;;;;;;4343872;33;20242;-55
2022/09/20 12:02:05;;;;;;;2.03;0.80;;;;;;;;;;4343880;32;20308;-55
2022/09/20 12:04:36;;;;;;;6.45;2.20;;;;;;;;;;4343825;33;20399;-55
2022/09/20 12:07:05;;;;;;;1.52;0.75;;;;;;;;;;4343095;33;20652;-55
2022/09/20 12:09:35;;;;;;;1.42;0.60;;;;;;;;;;4343838;33;20246;-55
2022/09/20 12:12:19;;;;;;;1.58;0.70;;;;;;;;;;4343891;33;20272;-54
2022/09/20 12:14:56;;;;;;;0.60;0.60;;;;;;;;;;4343311;33;20772;-53
2022/09/20 12:18:04;;;;;;;0.50;0.50;;;;;;;;;;4343663;33;20226;-53
2022/09/20 12:21:13;;;;;;;3.60;0.80;;;;;;;;;;4306766;33;20353;-55
2022/09/20 12:24:17;;;;;;;0.85;0.60;;;;;;;;;;4343527;33;20226;-54
2022/09/20 12:26:49;;;;;;;2.22;0.80;;;;;;;;;;4343797;33;20225;-55
2022/09/20 12:29:50;;;;;;;1.17;0.57;;;;;;;;;;4343263;33;20230;-56
2022/09/20 12:32:56;;;;;;;0.77;0.60;;;;;;;;;;4342333;33;20297;-55
2022/09/20 12:36:13;;;;;;;0.60;0.50;;;;;;;;;;4343591;33;20272;-53
2022/09/20 12:39:00;;;;;;;1.33;0.60;;;;;;;;;;4343675;33;20229;-55
2022/09/20 12:41:28;;;;;;;0.70;0.70;;;;;;;;;;4341933;33;20610;-54
2022/09/20 12:44:01;;;;;;;0.82;0.70;;;;;;;;;;4342105;32;20265;-54
2022/09/20 12:46:40;;;;;;;1.30;0.55;;;;;;;;;;4343300;33;20395;-54
2022/09/20 12:52:52;;;;;;;4.97;0.80;;;;;;;;;;4337793;33;20241;-53
2022/09/20 12:55:38;;;;;;;0.68;0.65;;;;;;;;;;4331280;33;20584;-54
2022/09/20 12:58:17;;;;;;;1.02;0.60;;;;;;;;;;4341060;32;20314;-55
2022/09/20 13:00:47;;;;;;;1.20;0.60;;;;;;;;;;4343567;32;20223;-54
2022/09/20 13:03:27;;;;;;;0.50;0.50;;;;;;;;;;4353379;32;20318;-55
2022/09/20 13:06:23;;;;;;;3.30;0.62;;;;;;;;;;4342132;32;20337;-53
2022/09/20 13:08:56;;;;;;;0.55;0.55;;;;;;;;;;4349724;32;20301;-54
2022/09/20 13:11:27;;;;;;;0.60;0.60;;;;;;;;;;4352421;32;20223;-55
2022/09/20 13:13:57;;;;;;;2.15;1.33;;;;;;;;;;4342451;32;20579;-54
2022/09/20 13:16:28;;;;;;;1.17;0.68;;;;;;;;;;4353258;32;20242;-55
2022/09/20 13:19:03;;;;;;;2.92;0.50;;;;;;;;;;4344603;32;20777;-54
2022/09/20 13:21:34;;;;;;;6.18;1.85;;;;;;;;;;4347664;32;20666;-53
2022/09/20 13:24:02;;;;;;;3.70;2.15;;;;;;;;;;4348789;32;20227;-54
2022/09/20 13:26:34;;;;;;;1.52;1.10;;;;;;;;;;4353969;32;20835;-56
2022/09/20 13:29:03;;;;;;;3.50;0.80;;;;;;;;;;4348093;32;20251;-55
2022/09/20 13:31:33;;;;;;;5.45;0.82;;;;;;;;;;4340949;33;20218;-54
2022/09/20 13:34:15;;;;;;;2.70;1.55;;;;;;;;;;4341686;33;20318;-54
2022/09/20 13:36:43;;;;;;;0.95;0.62;;;;;;;;;;4341865;33;20591;-54
2022/09/20 13:39:25;;;;;;;3.85;0.98;;;;;;;;;;4342011;33;20355;-54
2022/09/20 13:41:52;;;;;;;0.62;0.50;;;;;;;;;;4342582;33;20218;-55
2022/09/20 13:44:19;;;;;;;0.73;0.60;;;;;;;;;;4342379;33;20342;-55
2022/09/20 13:46:46;;;;;;;2.28;0.80;;;;;;;;;;4341788;33;20216;-56
2022/09/20 13:49:19;;;;;;;0.60;0.60;;;;;;;;;;4349289;32;20322;-54
2022/09/20 13:51:49;;;;;;;0.50;0.50;;;;;;;;;;4357219;32;20210;-54
2022/09/20 13:54:26;;;;;;;2.42;1.10;;;;;;;;;;4346649;32;20300;-55
2022/09/20 13:56:54;;;;;;;7.35;1.00;;;;;;;;;;4342378;33;20282;-54
2022/09/20 13:59:21;;;;;;;0.88;0.82;;;;;;;;;;4342366;33;20284;-55
2022/09/20 14:01:53;;;;;;;4.22;0.70;;;;;;;;;;4341575;33;20811;-55
2022/09/20 14:04:23;;;;;;;1.17;0.70;;;;;;;;;;4342154;33;20341;-53
2022/09/20 14:06:55;;;;;;;1.45;0.80;;;;;;;;;;4341924;33;20293;-54
2022/09/20 14:09:27;;;;;;;2.15;0.68;;;;;;;;;;4342203;33;20248;-54
2022/09/20 14:11:54;;;;;;;2.28;0.70;;;;;;;;;;4341719;33;20241;-55
2022/09/20 14:14:24;;;;;;;1.60;0.98;;;;;;;;;;4342140;33;20596;-54
2022/09/20 14:16:53;;;;;;;6.25;0.68;;;;;;;;;;4341838;33;20623;-54
2022/09/20 14:19:23;;;;;;;6.53;0.93;;;;;;;;;;4342087;33;20766;-54
2022/09/20 14:21:52;;;;;;;5.37;1.20;;;;;;;;;;4341308;33;20234;-55
2022/09/20 14:24:31;;;;;;;2.65;0.82;;;;;;;;;;4340821;33;20812;-54
2022/09/20 14:27:16;;;;;;;5.55;1.17;;;;;;;;;;4339519;33;20310;-55
2022/09/20 14:29:45;;;;;;;2.35;1.20;;;;;;;;;;4339170;33;20690;-54
2022/09/20 14:32:44;;;;;;;2.55;1.08;;;;;;;;;;4340232;32;20227;-56
2022/09/20 14:35:17;;;;;;;2.53;0.88;;;;;;;;;;4339254;33;20262;-54
2022/09/20 14:37:48;;;;;;;5.07;1.00;;;;;;;;;;4337891;33;20219;-55
2022/09/20 14:40:25;;;;;;;0.68;0.68;;;;;;;;;;4339519;33;20721;-55
2022/09/20 14:42:56;;;;;;;1.25;0.77;;;;;;;;;;4340518;33;20635;-54
2022/09/20 14:45:25;;;;;;;3.42;0.80;;;;;;;;;;4340813;33;20266;-53
2022/09/20 14:48:03;;;;;;;4.53;1.77;;;;;;;;;;4342237;33;20290;-54
2022/09/20 14:50:31;;;;;;;1.25;1.05;;;;;;;;;;4339045;33;20304;-54
2022/09/20 14:53:22;;;;;;;1.10;1.00;;;;;;;;;;4339580;33;20910;-55
2022/09/20 14:56:07;;;;;;;0.93;0.75;;;;;;;;;;4339585;33;20340;-54
2022/09/20 14:59:05;;;;;;;2.08;0.80;;;;;;;;;;4339189;33;20705;-55
2022/09/20 15:01:33;;;;;;;0.88;0.80;;;;;;;;;;4339728;33;20294;-53
2022/09/20 15:04:07;;;;;;;4.40;0.73;;;;;;;;;;4340016;33;20297;-54
2022/09/20 15:06:36;;;;;;;0.73;0.70;;;;;;;;;;4330478;33;20227;-55
2022/09/20 15:09:04;;;;;;;2.90;0.80;;;;;;;;;;4325174;33;20261;-54
2022/09/20 15:11:31;;;;;;;2.25;0.98;;;;;;;;;;4325436;33;20323;-53
2022/09/20 15:13:58;;;;;;;1.87;0.95;;;;;;;;;;4325903;33;20304;-54
2022/09/20 15:16:25;;;;;;;1.17;0.70;;;;;;;;;;4325607;33;20215;-54
2022/09/20 15:18:53;;;;;;;1.60;1.08;;;;;;;;;;4326370;33;20287;-55
2022/09/20 15:21:20;;;;;;;2.37;1.17;;;;;;;;;;4326123;33;20228;-54
2022/09/20 15:23:47;;;;;;;1.08;0.80;;;;;;;;;;4325892;33;20238;-53
2022/09/20 15:26:17;;;;;;;2.15;0.98;;;;;;;;;;4326468;33;20277;-54
2022/09/20 15:28:44;;;;;;;1.33;0.98;;;;;;;;;;4326896;33;20216;-54
2022/09/20 15:31:12;;;;;;;6.82;0.80;;;;;;;;;;4326629;33;20238;-54
2022/09/20 15:33:39;;;;;;;0.88;0.70;;;;;;;;;;4339762;33;20799;-55
2022/09/20 15:36:07;;;;;;;2.60;0.82;;;;;;;;;;4340528;33;20234;-56
2022/09/20 15:38:34;;;;;;;4.12;1.00;;;;;;;;;;4340871;33;20320;-54
2022/09/20 15:41:03;;;;;;;3.25;0.77;;;;;;;;;;4340494;33;20258;-55
2022/09/20 15:43:32;;;;;;;3.53;1.00;;;;;;;;;;4341151;33;20274;-56
2022/09/20 15:46:00;;;;;;;5.25;1.85;;;;;;;;;;4340262;33;20670;-54
2022/09/20 15:48:29;;;;;;;3.10;2.17;;;;;;;;;;4343666;33;20312;-53
2022/09/20 15:51:01;;;;;;;3.03;1.40;;;;;;;;;;4355222;32;20265;-53
2022/09/20 15:53:30;;;;;;;1.48;0.80;;;;;;;;;;4351567;33;20293;-54
2022/09/20 15:56:00;;;;;;;2.97;1.12;;;;;;;;;;4340803;33;20254;-53